sensor_id;sensor_type;location;lat;lon;timestamp;P1;durP1;ratioP1;P2;durP2;ratioP2
10013;SDS011;45684;48.358;10.746;2023-07-24T00:00:48;20.17;;;18.77;;
10013;SDS011;45684;48.358;10.746;2023-07-24T00:03:17;11.87;;;10.77;;
10013;SDS011;45684;48.358;10.746;2023-07-24T00:05:45;12.80;;;11.60;;
10013;SDS011;45684;48.358;10.746;2023-07-24T00:08:13;13.53;;;12.50;;
10013;SDS011;45684;48.358;10.746;2023-07-24T00:10:41;16.03;;;14.50;;
10013;SDS011;45684;48.358;10.746;2023-07-24T00:13:08;14.13;;;13.03;;
10013;SDS011;45684;48.358;10.746;2023-07-24T00:15:38;14.80;;;13.63;;
10013;SDS011;45684;48.358;10.746;2023-07-24T00:18:06;14.60;;;13.37;;
10013;SDS011;45684;48.358;10.746;2023-07-24T00:20:35;12.07;;;11.03;;
10013;SDS011;45684;48.358;10.746;2023-07-24T00:23:03;13.50;;;12.10;;
10013;SDS011;45684;48.358;10.746;2023-07-24T00:25:31;16.53;;;15.07;;
10013;SDS011;45684;48.358;10.746;2023-07-24T00:27:58;17.50;;;16.17;;
10013;SDS011;45684;48.358;10.746;2023-07-24T00:30:26;23.93;;;22.27;;
10013;SDS011;45684;48.358;10.746;2023-07-24T00:32:54;35.13;;;33.17;;
10013;SDS011;45684;48.358;10.746;2023-07-24T00:35:22;37.07;;;34.97;;
10013;SDS011;45684;48.358;10.746;2023-07-24T00:37:51;30.20;;;28.47;;
10013;SDS011;45684;48.358;10.746;2023-07-24T00:40:19;30.20;;;28.57;;
10013;SDS011;45684;48.358;10.746;2023-07-24T00:42:47;22.33;;;20.77;;
10013;SDS011;45684;48.358;10.746;2023-07-24T00:45:15;31.80;;;29.90;;
10013;SDS011;45684;48.358;10.746;2023-07-24T00:47:43;20.93;;;19.63;;
10013;SDS011;45684;48.358;10.746;2023-07-24T00:50:11;20.50;;;18.90;;
10013;SDS011;45684;48.358;10.746;2023-07-24T00:52:40;21.47;;;19.97;;
10013;SDS011;45684;48.358;10.746;2023-07-24T00:55:12;32.00;;;30.10;;
10013;SDS011;45684;48.358;10.746;2023-07-24T00:57:43;34.47;;;32.50;;
10013;SDS011;45684;48.358;10.746;2023-07-24T01:00:11;24.93;;;23.27;;
10013;SDS011;45684;48.358;10.746;2023-07-24T01:02:39;32.50;;;30.53;;
10013;SDS011;45684;48.358;10.746;2023-07-24T01:05:10;31.07;;;29.33;;
10013;SDS011;45684;48.358;10.746;2023-07-24T01:07:41;29.47;;;27.77;;
10013;SDS011;45684;48.358;10.746;2023-07-24T01:10:09;35.93;;;33.90;;
10013;SDS011;45684;48.358;10.746;2023-07-24T01:12:41;39.63;;;37.47;;
10013;SDS011;45684;48.358;10.746;2023-07-24T01:15:18;23.13;;;21.67;;
10013;SDS011;45684;48.358;10.746;2023-07-24T01:17:53;29.57;;;27.83;;
10013;SDS011;45684;48.358;10.746;2023-07-24T01:20:26;25.07;;;23.57;;
10013;SDS011;45684;48.358;10.746;2023-07-24T01:23:02;22.23;;;20.63;;
10013;SDS011;45684;48.358;10.746;2023-07-24T01:25:49;18.90;;;17.67;;
10013;SDS011;45684;48.358;10.746;2023-07-24T01:28:21;20.17;;;18.63;;
10013;SDS011;45684;48.358;10.746;2023-07-24T01:30:49;22.57;;;20.93;;
10013;SDS011;45684;48.358;10.746;2023-07-24T01:33:17;31.47;;;29.53;;
10013;SDS011;45684;48.358;10.746;2023-07-24T01:35:46;19.57;;;18.20;;
10013;SDS011;45684;48.358;10.746;2023-07-24T01:38:16;20.63;;;19.00;;
10013;SDS011;45684;48.358;10.746;2023-07-24T01:40:43;27.50;;;25.80;;
10013;SDS011;45684;48.358;10.746;2023-07-24T01:43:14;33.63;;;31.80;;
10013;SDS011;45684;48.358;10.746;2023-07-24T01:45:42;30.20;;;28.33;;
10013;SDS011;45684;48.358;10.746;2023-07-24T01:48:10;21.07;;;19.63;;
10013;SDS011;45684;48.358;10.746;2023-07-24T01:50:38;23.83;;;22.00;;
10013;SDS011;45684;48.358;10.746;2023-07-24T01:53:06;30.90;;;29.00;;
10013;SDS011;45684;48.358;10.746;2023-07-24T01:55:33;152.23;;;145.57;;
10013;SDS011;45684;48.358;10.746;2023-07-24T01:58:01;68.03;;;64.80;;
10013;SDS011;45684;48.358;10.746;2023-07-24T02:00:31;19.97;;;18.37;;
10013;SDS011;45684;48.358;10.746;2023-07-24T02:02:59;29.10;;;27.20;;
10013;SDS011;45684;48.358;10.746;2023-07-24T02:05:27;19.73;;;18.27;;
10013;SDS011;45684;48.358;10.746;2023-07-24T02:07:55;41.60;;;39.30;;
10013;SDS011;45684;48.358;10.746;2023-07-24T02:10:23;49.80;;;47.13;;
10013;SDS011;45684;48.358;10.746;2023-07-24T02:12:51;68.20;;;64.77;;
10013;SDS011;45684;48.358;10.746;2023-07-24T02:15:19;52.87;;;50.20;;
10013;SDS011;45684;48.358;10.746;2023-07-24T02:17:48;48.17;;;45.63;;
10013;SDS011;45684;48.358;10.746;2023-07-24T02:20:16;55.93;;;53.10;;
10013;SDS011;45684;48.358;10.746;2023-07-24T02:22:44;71.17;;;67.77;;
10013;SDS011;45684;48.358;10.746;2023-07-24T02:25:12;172.80;;;165.60;;
10013;SDS011;45684;48.358;10.746;2023-07-24T02:27:41;266.03;;;254.40;;
10013;SDS011;45684;48.358;10.746;2023-07-24T02:30:12;474.30;;;449.23;;
10013;SDS011;45684;48.358;10.746;2023-07-24T02:32:39;673.43;;;635.40;;
10013;SDS011;45684;48.358;10.746;2023-07-24T02:35:09;624.90;;;589.90;;
10013;SDS011;45684;48.358;10.746;2023-07-24T02:37:37;647.20;;;612.33;;
10013;SDS011;45684;48.358;10.746;2023-07-24T02:40:05;569.53;;;539.60;;
10013;SDS011;45684;48.358;10.746;2023-07-24T02:42:34;282.90;;;267.13;;
10013;SDS011;45684;48.358;10.746;2023-07-24T02:45:02;268.87;;;255.33;;
10013;SDS011;45684;48.358;10.746;2023-07-24T02:47:31;282.47;;;268.10;;
10013;SDS011;45684;48.358;10.746;2023-07-24T02:49:59;371.20;;;351.53;;
10013;SDS011;45684;48.358;10.746;2023-07-24T02:52:28;436.50;;;411.93;;
10013;SDS011;45684;48.358;10.746;2023-07-24T02:54:56;326.03;;;310.43;;
10013;SDS011;45684;48.358;10.746;2023-07-24T02:57:24;340.83;;;323.20;;
10013;SDS011;45684;48.358;10.746;2023-07-24T02:59:52;317.37;;;301.43;;
10013;SDS011;45684;48.358;10.746;2023-07-24T03:02:20;297.93;;;283.93;;
10013;SDS011;45684;48.358;10.746;2023-07-24T03:04:48;322.93;;;308.07;;
10013;SDS011;45684;48.358;10.746;2023-07-24T03:07:16;245.30;;;233.87;;
10013;SDS011;45684;48.358;10.746;2023-07-24T03:09:47;557.30;;;528.33;;
10013;SDS011;45684;48.358;10.746;2023-07-24T03:12:17;452.27;;;429.83;;
10013;SDS011;45684;48.358;10.746;2023-07-24T03:14:46;619.23;;;582.93;;
10013;SDS011;45684;48.358;10.746;2023-07-24T03:17:14;473.03;;;449.80;;
10013;SDS011;45684;48.358;10.746;2023-07-24T03:19:42;528.43;;;501.00;;
10013;SDS011;45684;48.358;10.746;2023-07-24T03:22:09;556.17;;;527.43;;
10013;SDS011;45684;48.358;10.746;2023-07-24T03:24:37;602.03;;;569.73;;
10013;SDS011;45684;48.358;10.746;2023-07-24T03:27:07;434.57;;;413.67;;
10013;SDS011;45684;48.358;10.746;2023-07-24T03:29:34;296.90;;;283.07;;
10013;SDS011;45684;48.358;10.746;2023-07-24T03:32:03;429.83;;;410.03;;
10013;SDS011;45684;48.358;10.746;2023-07-24T03:34:32;488.43;;;465.10;;
10013;SDS011;45684;48.358;10.746;2023-07-24T03:36:59;769.97;;;719.70;;
10013;SDS011;45684;48.358;10.746;2023-07-24T03:39:29;737.90;;;690.93;;
10013;SDS011;45684;48.358;10.746;2023-07-24T03:41:57;702.43;;;658.13;;
10013;SDS011;45684;48.358;10.746;2023-07-24T03:44:26;732.63;;;685.90;;
10013;SDS011;45684;48.358;10.746;2023-07-24T03:46:54;767.33;;;713.47;;
10013;SDS011;45684;48.358;10.746;2023-07-24T03:49:22;769.57;;;714.43;;
10013;SDS011;45684;48.358;10.746;2023-07-24T03:51:50;753.60;;;698.67;;
10013;SDS011;45684;48.358;10.746;2023-07-24T03:54:17;692.93;;;650.33;;
10013;SDS011;45684;48.358;10.746;2023-07-24T03:56:45;669.13;;;629.20;;
10013;SDS011;45684;48.358;10.746;2023-07-24T03:59:13;552.37;;;522.17;;
10013;SDS011;45684;48.358;10.746;2023-07-24T04:01:42;550.30;;;520.03;;
10013;SDS011;45684;48.358;10.746;2023-07-24T04:04:10;460.07;;;435.70;;
10013;SDS011;45684;48.358;10.746;2023-07-24T04:06:38;385.03;;;365.23;;
10013;SDS011;45684;48.358;10.746;2023-07-24T04:09:06;283.20;;;269.43;;
10013;SDS011;45684;48.358;10.746;2023-07-24T04:11:34;328.03;;;312.93;;
10013;SDS011;45684;48.358;10.746;2023-07-24T04:14:04;330.00;;;314.67;;
10013;SDS011;45684;48.358;10.746;2023-07-24T04:16:32;415.17;;;395.33;;
10013;SDS011;45684;48.358;10.746;2023-07-24T04:19:01;355.80;;;339.30;;
10013;SDS011;45684;48.358;10.746;2023-07-24T04:21:29;400.50;;;381.83;;
10013;SDS011;45684;48.358;10.746;2023-07-24T04:23:57;368.83;;;349.57;;
10013;SDS011;45684;48.358;10.746;2023-07-24T04:26:25;373.73;;;354.17;;
10013;SDS011;45684;48.358;10.746;2023-07-24T04:28:54;501.70;;;471.37;;
10013;SDS011;45684;48.358;10.746;2023-07-24T04:31:22;529.13;;;497.07;;
10013;SDS011;45684;48.358;10.746;2023-07-24T04:33:50;669.87;;;624.13;;
10013;SDS011;45684;48.358;10.746;2023-07-24T04:36:19;667.53;;;621.63;;
10013;SDS011;45684;48.358;10.746;2023-07-24T04:38:46;796.30;;;738.80;;
10013;SDS011;45684;48.358;10.746;2023-07-24T04:41:14;833.80;;;768.70;;
10013;SDS011;45684;48.358;10.746;2023-07-24T04:43:43;817.97;;;748.37;;
10013;SDS011;45684;48.358;10.746;2023-07-24T04:46:10;889.07;;;812.47;;
10013;SDS011;45684;48.358;10.746;2023-07-24T04:48:38;893.33;;;815.43;;
10013;SDS011;45684;48.358;10.746;2023-07-24T04:51:06;914.53;;;835.40;;
10013;SDS011;45684;48.358;10.746;2023-07-24T04:53:35;930.33;;;846.13;;
10013;SDS011;45684;48.358;10.746;2023-07-24T04:56:03;957.67;;;868.33;;
10013;SDS011;45684;48.358;10.746;2023-07-24T04:58:31;983.93;;;888.87;;
10013;SDS011;45684;48.358;10.746;2023-07-24T05:01:01;988.20;;;890.37;;
10013;SDS011;45684;48.358;10.746;2023-07-24T05:03:30;970.53;;;874.47;;
10013;SDS011;45684;48.358;10.746;2023-07-24T05:05:58;976.43;;;877.23;;
10013;SDS011;45684;48.358;10.746;2023-07-24T05:08:26;962.53;;;862.67;;
10013;SDS011;45684;48.358;10.746;2023-07-24T05:10:55;972.10;;;875.43;;
10013;SDS011;45684;48.358;10.746;2023-07-24T05:13:23;990.60;;;888.07;;
10013;SDS011;45684;48.358;10.746;2023-07-24T05:15:51;998.57;;;895.50;;
10013;SDS011;45684;48.358;10.746;2023-07-24T05:18:19;1005.33;;;900.67;;
10013;SDS011;45684;48.358;10.746;2023-07-24T05:20:47;986.37;;;884.30;;
10013;SDS011;45684;48.358;10.746;2023-07-24T05:23:17;999.43;;;894.53;;
10013;SDS011;45684;48.358;10.746;2023-07-24T05:25:45;1024.13;;;914.63;;
10013;SDS011;45684;48.358;10.746;2023-07-24T05:28:14;1041.93;;;928.73;;
10013;SDS011;45684;48.358;10.746;2023-07-24T05:30:42;1028.73;;;904.27;;
10013;SDS011;45684;48.358;10.746;2023-07-24T05:33:10;1128.97;;;937.53;;
10013;SDS011;45684;48.358;10.746;2023-07-24T05:35:38;1094.10;;;952.03;;
10013;SDS011;45684;48.358;10.746;2023-07-24T05:38:05;985.97;;;885.53;;
10013;SDS011;45684;48.358;10.746;2023-07-24T05:40:33;944.27;;;851.03;;
10013;SDS011;45684;48.358;10.746;2023-07-24T05:43:02;960.60;;;861.50;;
10013;SDS011;45684;48.358;10.746;2023-07-24T05:45:31;876.73;;;797.87;;
10013;SDS011;45684;48.358;10.746;2023-07-24T05:47:59;893.33;;;812.20;;
10013;SDS011;45684;48.358;10.746;2023-07-24T05:50:27;881.83;;;801.33;;
10013;SDS011;45684;48.358;10.746;2023-07-24T05:52:55;670.47;;;617.30;;
10013;SDS011;45684;48.358;10.746;2023-07-24T05:55:22;696.17;;;637.00;;
10013;SDS011;45684;48.358;10.746;2023-07-24T05:57:50;618.23;;;567.43;;
10013;SDS011;45684;48.358;10.746;2023-07-24T06:00:18;545.33;;;504.97;;
10013;SDS011;45684;48.358;10.746;2023-07-24T06:02:47;728.60;;;659.93;;
10013;SDS011;45684;48.358;10.746;2023-07-24T06:05:15;779.93;;;706.47;;
10013;SDS011;45684;48.358;10.746;2023-07-24T06:07:43;475.50;;;443.77;;
10013;SDS011;45684;48.358;10.746;2023-07-24T06:10:11;287.43;;;271.53;;
10013;SDS011;45684;48.358;10.746;2023-07-24T06:12:39;168.80;;;161.33;;
10013;SDS011;45684;48.358;10.746;2023-07-24T06:15:07;60.67;;;57.53;;
10013;SDS011;45684;48.358;10.746;2023-07-24T06:17:35;56.33;;;53.40;;
10013;SDS011;45684;48.358;10.746;2023-07-24T06:20:05;54.33;;;51.57;;
10013;SDS011;45684;48.358;10.746;2023-07-24T06:22:34;42.13;;;39.80;;
10013;SDS011;45684;48.358;10.746;2023-07-24T06:25:02;49.63;;;47.13;;
10013;SDS011;45684;48.358;10.746;2023-07-24T06:27:30;53.77;;;50.87;;
10013;SDS011;45684;48.358;10.746;2023-07-24T06:29:58;55.33;;;52.53;;
10013;SDS011;45684;48.358;10.746;2023-07-24T06:32:40;86.37;;;82.30;;
10013;SDS011;45684;48.358;10.746;2023-07-24T06:35:09;190.97;;;182.50;;
10013;SDS011;45684;48.358;10.746;2023-07-24T06:37:37;91.60;;;87.30;;
10013;SDS011;45684;48.358;10.746;2023-07-24T06:40:05;49.17;;;46.40;;
10013;SDS011;45684;48.358;10.746;2023-07-24T06:42:34;340.87;;;325.00;;
10013;SDS011;45684;48.358;10.746;2023-07-24T06:45:02;755.00;;;693.10;;
10013;SDS011;45684;48.358;10.746;2023-07-24T06:47:33;689.20;;;637.87;;
10013;SDS011;45684;48.358;10.746;2023-07-24T06:50:01;727.97;;;669.00;;
10013;SDS011;45684;48.358;10.746;2023-07-24T06:52:32;858.17;;;776.87;;
10013;SDS011;45684;48.358;10.746;2023-07-24T06:55:00;976.67;;;880.43;;
10013;SDS011;45684;48.358;10.746;2023-07-24T06:57:28;1208.03;;;999.90;;
10013;SDS011;45684;48.358;10.746;2023-07-24T06:59:56;1068.03;;;965.77;;
10013;SDS011;45684;48.358;10.746;2023-07-24T07:02:24;820.10;;;764.87;;
10013;SDS011;45684;48.358;10.746;2023-07-24T07:04:52;752.10;;;696.27;;
10013;SDS011;45684;48.358;10.746;2023-07-24T07:07:20;750.60;;;693.27;;
10013;SDS011;45684;48.358;10.746;2023-07-24T07:09:49;694.97;;;643.17;;
10013;SDS011;45684;48.358;10.746;2023-07-24T07:12:17;593.57;;;557.47;;
10013;SDS011;45684;48.358;10.746;2023-07-24T07:14:47;850.87;;;791.90;;
10013;SDS011;45684;48.358;10.746;2023-07-24T07:17:15;687.80;;;646.60;;
10013;SDS011;45684;48.358;10.746;2023-07-24T07:19:43;577.23;;;544.83;;
10013;SDS011;45684;48.358;10.746;2023-07-24T07:22:11;516.83;;;489.60;;
10013;SDS011;45684;48.358;10.746;2023-07-24T07:24:39;430.20;;;407.60;;
10013;SDS011;45684;48.358;10.746;2023-07-24T07:27:08;425.53;;;403.80;;
10013;SDS011;45684;48.358;10.746;2023-07-24T07:29:36;621.90;;;587.33;;
10013;SDS011;45684;48.358;10.746;2023-07-24T07:32:04;526.40;;;498.03;;
10013;SDS011;45684;48.358;10.746;2023-07-24T07:34:33;580.50;;;548.90;;
10013;SDS011;45684;48.358;10.746;2023-07-24T07:37:02;762.47;;;714.47;;
10013;SDS011;45684;48.358;10.746;2023-07-24T07:39:30;731.90;;;688.83;;
10013;SDS011;45684;48.358;10.746;2023-07-24T07:41:59;761.87;;;713.30;;
10013;SDS011;45684;48.358;10.746;2023-07-24T07:44:34;785.80;;;737.00;;
10013;SDS011;45684;48.358;10.746;2023-07-24T07:47:02;841.33;;;785.63;;
10013;SDS011;45684;48.358;10.746;2023-07-24T07:49:30;714.87;;;672.87;;
10013;SDS011;45684;48.358;10.746;2023-07-24T07:51:58;740.73;;;696.73;;
10013;SDS011;45684;48.358;10.746;2023-07-24T07:54:26;873.77;;;812.20;;
10013;SDS011;45684;48.358;10.746;2023-07-24T07:56:54;898.03;;;832.43;;
10013;SDS011;45684;48.358;10.746;2023-07-24T07:59:22;859.30;;;800.63;;
10013;SDS011;45684;48.358;10.746;2023-07-24T08:01:51;857.70;;;798.10;;
10013;SDS011;45684;48.358;10.746;2023-07-24T08:04:19;894.60;;;827.33;;
10013;SDS011;45684;48.358;10.746;2023-07-24T08:06:47;881.93;;;818.63;;
10013;SDS011;45684;48.358;10.746;2023-07-24T08:09:14;900.93;;;832.90;;
10013;SDS011;45684;48.358;10.746;2023-07-24T08:11:43;884.73;;;819.43;;
10013;SDS011;45684;48.358;10.746;2023-07-24T08:14:11;833.60;;;773.23;;
10013;SDS011;45684;48.358;10.746;2023-07-24T08:16:39;801.63;;;744.73;;
10013;SDS011;45684;48.358;10.746;2023-07-24T08:19:09;730.10;;;681.30;;
10013;SDS011;45684;48.358;10.746;2023-07-24T08:21:37;631.53;;;592.70;;
10013;SDS011;45684;48.358;10.746;2023-07-24T08:24:05;632.43;;;595.20;;
10013;SDS011;45684;48.358;10.746;2023-07-24T08:26:33;604.33;;;569.43;;
10013;SDS011;45684;48.358;10.746;2023-07-24T08:29:00;278.20;;;266.07;;
10013;SDS011;45684;48.358;10.746;2023-07-24T08:31:29;288.50;;;275.90;;
10013;SDS011;45684;48.358;10.746;2023-07-24T08:33:57;121.03;;;116.03;;
10013;SDS011;45684;48.358;10.746;2023-07-24T08:36:26;51.60;;;49.30;;
10013;SDS011;45684;48.358;10.746;2023-07-24T08:38:55;48.10;;;45.87;;
10013;SDS011;45684;48.358;10.746;2023-07-24T08:41:24;52.73;;;50.33;;
10013;SDS011;45684;48.358;10.746;2023-07-24T08:43:52;18.10;;;17.02;;
10013;SDS011;45684;48.358;10.746;2023-07-24T08:46:20;8.80;;;8.00;;
10013;SDS011;45684;48.358;10.746;2023-07-24T08:48:49;8.25;;;7.55;;
10013;SDS011;45684;48.358;10.746;2023-07-24T08:51:17;8.52;;;7.82;;
10013;SDS011;45684;48.358;10.746;2023-07-24T08:53:49;8.60;;;7.90;;
10013;SDS011;45684;48.358;10.746;2023-07-24T08:56:17;8.20;;;7.40;;
10013;SDS011;45684;48.358;10.746;2023-07-24T08:58:46;8.00;;;7.38;;
10013;SDS011;45684;48.358;10.746;2023-07-24T09:01:14;7.82;;;7.13;;
10013;SDS011;45684;48.358;10.746;2023-07-24T09:03:43;7.88;;;7.28;;
10013;SDS011;45684;48.358;10.746;2023-07-24T09:06:11;8.27;;;7.57;;
10013;SDS011;45684;48.358;10.746;2023-07-24T09:08:40;8.00;;;7.30;;
10013;SDS011;45684;48.358;10.746;2023-07-24T09:11:10;8.38;;;7.20;;
10013;SDS011;45684;48.358;10.746;2023-07-24T09:13:41;8.13;;;7.32;;
10013;SDS011;45684;48.358;10.746;2023-07-24T09:16:20;7.95;;;7.30;;
10013;SDS011;45684;48.358;10.746;2023-07-24T09:18:49;7.93;;;7.22;;
10013;SDS011;45684;48.358;10.746;2023-07-24T09:21:27;7.68;;;6.97;;
10013;SDS011;45684;48.358;10.746;2023-07-24T09:23:56;8.15;;;7.45;;
10013;SDS011;45684;48.358;10.746;2023-07-24T09:26:26;6.80;;;6.38;;
10013;SDS011;45684;48.358;10.746;2023-07-24T09:28:54;7.20;;;6.70;;
10013;SDS011;45684;48.358;10.746;2023-07-24T09:31:22;7.47;;;6.88;;
10013;SDS011;45684;48.358;10.746;2023-07-24T09:34:01;7.07;;;6.47;;
10013;SDS011;45684;48.358;10.746;2023-07-24T09:36:36;7.30;;;6.78;;
10013;SDS011;45684;48.358;10.746;2023-07-24T09:39:05;7.50;;;6.78;;
10013;SDS011;45684;48.358;10.746;2023-07-24T09:41:38;7.30;;;6.70;;
10013;SDS011;45684;48.358;10.746;2023-07-24T09:44:07;7.00;;;6.50;;
10013;SDS011;45684;48.358;10.746;2023-07-24T09:46:35;7.70;;;7.10;;
10013;SDS011;45684;48.358;10.746;2023-07-24T09:49:13;7.03;;;6.53;;
10013;SDS011;45684;48.358;10.746;2023-07-24T09:51:42;7.20;;;6.70;;
10013;SDS011;45684;48.358;10.746;2023-07-24T09:54:13;7.38;;;6.85;;
10013;SDS011;45684;48.358;10.746;2023-07-24T09:56:49;7.57;;;7.00;;
10013;SDS011;45684;48.358;10.746;2023-07-24T09:59:36;7.13;;;6.53;;
10013;SDS011;45684;48.358;10.746;2023-07-24T10:02:04;7.18;;;6.68;;
10013;SDS011;45684;48.358;10.746;2023-07-24T10:04:37;7.22;;;6.63;;
10013;SDS011;45684;48.358;10.746;2023-07-24T10:07:06;7.32;;;6.63;;
10013;SDS011;45684;48.358;10.746;2023-07-24T10:09:35;7.57;;;6.97;;
10013;SDS011;45684;48.358;10.746;2023-07-24T10:12:05;7.70;;;7.10;;
10013;SDS011;45684;48.358;10.746;2023-07-24T10:14:34;7.35;;;6.72;;
10013;SDS011;45684;48.358;10.746;2023-07-24T10:17:04;7.18;;;6.57;;
10013;SDS011;45684;48.358;10.746;2023-07-24T10:19:36;7.80;;;7.20;;
10013;SDS011;45684;48.358;10.746;2023-07-24T10:22:06;7.10;;;6.60;;
10013;SDS011;45684;48.358;10.746;2023-07-24T10:24:34;7.30;;;6.70;;
10013;SDS011;45684;48.358;10.746;2023-07-24T10:27:09;7.45;;;6.85;;
10013;SDS011;45684;48.358;10.746;2023-07-24T10:29:36;7.70;;;7.15;;
10013;SDS011;45684;48.358;10.746;2023-07-24T10:32:15;7.40;;;6.90;;
10013;SDS011;45684;48.358;10.746;2023-07-24T10:34:44;7.70;;;7.05;;
10013;SDS011;45684;48.358;10.746;2023-07-24T10:37:12;7.03;;;6.53;;
10013;SDS011;45684;48.358;10.746;2023-07-24T10:39:40;7.18;;;6.63;;
10013;SDS011;45684;48.358;10.746;2023-07-24T10:42:10;7.25;;;6.65;;
10013;SDS011;45684;48.358;10.746;2023-07-24T10:44:39;7.00;;;6.55;;
10013;SDS011;45684;48.358;10.746;2023-07-24T10:47:07;7.30;;;6.80;;
10013;SDS011;45684;48.358;10.746;2023-07-24T10:49:35;7.55;;;6.85;;
10013;SDS011;45684;48.358;10.746;2023-07-24T10:52:03;6.90;;;6.50;;
10013;SDS011;45684;48.358;10.746;2023-07-24T10:54:31;6.75;;;6.15;;
10013;SDS011;45684;48.358;10.746;2023-07-24T10:56:59;8.07;;;7.35;;
10013;SDS011;45684;48.358;10.746;2023-07-24T10:59:38;7.10;;;6.57;;
10013;SDS011;45684;48.358;10.746;2023-07-24T11:02:07;7.20;;;6.70;;
10013;SDS011;45684;48.358;10.746;2023-07-24T11:04:36;7.18;;;6.68;;
10013;SDS011;45684;48.358;10.746;2023-07-24T11:07:04;7.80;;;7.20;;
10013;SDS011;45684;48.358;10.746;2023-07-24T11:09:35;7.63;;;7.05;;
10013;SDS011;45684;48.358;10.746;2023-07-24T11:12:09;7.25;;;6.65;;
10013;SDS011;45684;48.358;10.746;2023-07-24T11:14:47;7.38;;;6.85;;
10013;SDS011;45684;48.358;10.746;2023-07-24T11:17:20;7.88;;;7.18;;
10013;SDS011;45684;48.358;10.746;2023-07-24T11:19:48;7.57;;;6.85;;
10013;SDS011;45684;48.358;10.746;2023-07-24T11:22:21;7.32;;;6.72;;
10013;SDS011;45684;48.358;10.746;2023-07-24T11:24:49;7.13;;;6.63;;
10013;SDS011;45684;48.358;10.746;2023-07-24T11:27:17;8.10;;;7.45;;
10013;SDS011;45684;48.358;10.746;2023-07-24T11:29:48;7.78;;;7.18;;
10013;SDS011;45684;48.358;10.746;2023-07-24T11:32:19;7.70;;;7.10;;
10013;SDS011;45684;48.358;10.746;2023-07-24T11:34:47;7.63;;;6.95;;
10013;SDS011;45684;48.358;10.746;2023-07-24T11:37:16;7.82;;;7.22;;
10013;SDS011;45684;48.358;10.746;2023-07-24T11:39:54;8.43;;;7.60;;
10013;SDS011;45684;48.358;10.746;2023-07-24T11:42:24;7.80;;;7.30;;
10013;SDS011;45684;48.358;10.746;2023-07-24T11:44:54;8.00;;;7.50;;
10013;SDS011;45684;48.358;10.746;2023-07-24T11:47:22;7.80;;;7.30;;
10013;SDS011;45684;48.358;10.746;2023-07-24T11:49:57;8.35;;;7.63;;
10013;SDS011;45684;48.358;10.746;2023-07-24T11:52:25;9.05;;;8.25;;
10013;SDS011;45684;48.358;10.746;2023-07-24T11:54:56;9.15;;;8.45;;
10013;SDS011;45684;48.358;10.746;2023-07-24T11:57:27;9.38;;;8.55;;
10013;SDS011;45684;48.358;10.746;2023-07-24T11:59:57;11.70;;;10.77;;
10013;SDS011;45684;48.358;10.746;2023-07-24T12:02:25;9.73;;;9.05;;
10013;SDS011;45684;48.358;10.746;2023-07-24T12:04:55;16.50;;;15.50;;
10013;SDS011;45684;48.358;10.746;2023-07-24T12:07:28;94.95;;;91.00;;
10013;SDS011;45684;48.358;10.746;2023-07-24T12:09:59;56.38;;;53.92;;
10013;SDS011;45684;48.358;10.746;2023-07-24T12:12:38;184.47;;;177.07;;
10013;SDS011;45684;48.358;10.746;2023-07-24T12:15:09;163.23;;;156.80;;
10013;SDS011;45684;48.358;10.746;2023-07-24T12:17:37;137.37;;;132.00;;
10013;SDS011;45684;48.358;10.746;2023-07-24T12:20:06;201.67;;;193.57;;
10013;SDS011;45684;48.358;10.746;2023-07-24T12:22:36;159.77;;;153.30;;
10013;SDS011;45684;48.358;10.746;2023-07-24T12:25:05;204.13;;;195.87;;
10013;SDS011;45684;48.358;10.746;2023-07-24T12:27:33;243.27;;;233.10;;
10013;SDS011;45684;48.358;10.746;2023-07-24T12:30:01;254.57;;;243.93;;
10013;SDS011;45684;48.358;10.746;2023-07-24T12:32:31;299.90;;;286.40;;
10013;SDS011;45684;48.358;10.746;2023-07-24T12:34:59;295.07;;;282.03;;
10013;SDS011;45684;48.358;10.746;2023-07-24T12:37:27;304.23;;;291.23;;
10013;SDS011;45684;48.358;10.746;2023-07-24T12:39:55;319.97;;;305.70;;
10013;SDS011;45684;48.358;10.746;2023-07-24T12:42:23;341.83;;;326.47;;
10013;SDS011;45684;48.358;10.746;2023-07-24T12:44:50;380.90;;;363.13;;
10013;SDS011;45684;48.358;10.746;2023-07-24T12:47:18;322.70;;;308.43;;
10013;SDS011;45684;48.358;10.746;2023-07-24T12:49:47;288.43;;;276.27;;
10013;SDS011;45684;48.358;10.746;2023-07-24T12:52:15;193.02;;;185.05;;
10013;SDS011;45684;48.358;10.746;2023-07-24T12:54:43;155.35;;;149.30;;
10013;SDS011;45684;48.358;10.746;2023-07-24T12:57:26;105.43;;;101.10;;
10013;SDS011;45684;48.358;10.746;2023-07-24T12:59:54;98.40;;;94.15;;
10013;SDS011;45684;48.358;10.746;2023-07-24T13:02:22;84.40;;;80.93;;
10013;SDS011;45684;48.358;10.746;2023-07-24T13:04:51;23.48;;;22.15;;
10013;SDS011;45684;48.358;10.746;2023-07-24T13:07:19;18.77;;;17.63;;
10013;SDS011;45684;48.358;10.746;2023-07-24T13:09:47;15.20;;;14.20;;
10013;SDS011;45684;48.358;10.746;2023-07-24T13:12:15;15.00;;;14.10;;
10013;SDS011;45684;48.358;10.746;2023-07-24T13:14:43;8.40;;;7.60;;
10013;SDS011;45684;48.358;10.746;2023-07-24T13:17:11;8.52;;;7.93;;
10013;SDS011;45684;48.358;10.746;2023-07-24T13:19:42;8.30;;;7.60;;
10013;SDS011;45684;48.358;10.746;2023-07-24T13:22:11;7.10;;;6.50;;
10013;SDS011;45684;48.358;10.746;2023-07-24T13:24:39;7.43;;;6.75;;
10013;SDS011;45684;48.358;10.746;2023-07-24T13:27:07;7.22;;;6.63;;
10013;SDS011;45684;48.358;10.746;2023-07-24T13:29:34;7.05;;;6.55;;
10013;SDS011;45684;48.358;10.746;2023-07-24T13:32:02;7.22;;;6.63;;
10013;SDS011;45684;48.358;10.746;2023-07-24T13:34:31;6.55;;;6.07;;
10013;SDS011;45684;48.358;10.746;2023-07-24T13:36:59;6.78;;;6.30;;
10013;SDS011;45684;48.358;10.746;2023-07-24T13:39:29;7.00;;;6.50;;
10013;SDS011;45684;48.358;10.746;2023-07-24T13:41:58;7.00;;;6.50;;
10013;SDS011;45684;48.358;10.746;2023-07-24T13:44:25;7.20;;;6.60;;
10013;SDS011;45684;48.358;10.746;2023-07-24T13:46:53;6.95;;;6.35;;
10013;SDS011;45684;48.358;10.746;2023-07-24T13:49:22;7.00;;;6.50;;
10013;SDS011;45684;48.358;10.746;2023-07-24T13:51:50;6.20;;;5.80;;
10013;SDS011;45684;48.358;10.746;2023-07-24T13:54:18;6.60;;;6.10;;
10013;SDS011;45684;48.358;10.746;2023-07-24T13:56:47;7.22;;;6.63;;
10013;SDS011;45684;48.358;10.746;2023-07-24T13:59:15;6.75;;;6.30;;
10013;SDS011;45684;48.358;10.746;2023-07-24T14:01:43;7.60;;;6.97;;
10013;SDS011;45684;48.358;10.746;2023-07-24T14:04:11;5.95;;;5.55;;
10013;SDS011;45684;48.358;10.746;2023-07-24T14:06:40;6.80;;;6.30;;
10013;SDS011;45684;48.358;10.746;2023-07-24T14:09:08;6.35;;;5.95;;
10013;SDS011;45684;48.358;10.746;2023-07-24T14:11:36;6.18;;;5.78;;
10013;SDS011;45684;48.358;10.746;2023-07-24T14:14:05;5.47;;;5.18;;